Time;durP1;ratioP1;P1;durP2;ratioP2;P2;SDS_P1;SDS_P2;PMS_P1;PMS_P2;Temp;Humidity;BMP_temperature;BMP_pressure;BME280_temperature;BME280_humidity;BME280_pressure;Samples;Min_cycle;Max_cycle;Signal;HPM_P1;HPM_P2
2022/09/06 00:02:01;;;;;;;4.22;3.83;;;;;;;25.92;57.85;101419.41;5094705;28;20048;-72
2022/09/06 00:04:29;;;;;;;3.70;3.40;;;;;;;25.93;57.89;101421.16;5076356;28;20070;-73
2022/09/06 00:06:56;;;;;;;8.15;4.28;;;;;;;25.93;57.97;101423.84;5095033;28;20044;-72
2022/09/06 00:09:24;;;;;;;3.72;3.42;;;;;;;25.93;57.92;101429.28;5094943;28;20044;-72
2022/09/06 00:11:51;;;;;;;4.20;3.83;;;;;;;25.94;57.80;101424.69;5094312;28;20055;-72
2022/09/06 00:14:18;;;;;;;4.28;3.83;;;;;;;25.95;57.94;101426.41;5093684;28;20051;-72
2022/09/06 00:16:46;;;;;;;6.40;3.83;;;;;;;25.94;57.79;101417.41;5094217;28;20044;-73
2022/09/06 00:19:13;;;;;;;4.30;3.85;;;;;;;25.95;57.81;101418.25;5094478;28;20051;-72
2022/09/06 00:21:40;;;;;;;4.82;3.90;;;;;;;25.95;58.03;101423.69;5094153;28;20403;-72
2022/09/06 00:24:08;;;;;;;5.13;3.88;;;;;;;25.95;57.84;101420.97;5094052;28;20044;-72
2022/09/06 00:26:35;;;;;;;4.63;4.15;;;;;;;25.94;57.87;101413.84;5094038;28;20039;-72
2022/09/06 00:29:03;;;;;;;3.90;3.60;;;;;;;25.94;57.82;101406.56;5094913;28;20048;-72
2022/09/06 00:31:31;;;;;;;4.25;3.85;;;;;;;25.94;58.01;101409.28;5094232;28;20047;-72
2022/09/06 00:33:58;;;;;;;5.57;4.03;;;;;;;25.93;58.06;101413.00;5094175;28;20048;-73
2022/09/06 00:36:26;;;;;;;4.00;3.63;;;;;;;25.94;58.01;101412.00;5094240;28;20487;-72
2022/09/06 00:38:53;;;;;;;4.80;4.00;;;;;;;25.95;58.03;101415.53;5094227;28;20052;-72
2022/09/06 00:41:21;;;;;;;4.95;4.15;;;;;;;25.94;58.01;101412.00;5093884;28;20051;-72
2022/09/06 00:43:48;;;;;;;5.70;3.63;;;;;;;25.94;58.01;101409.28;5093240;28;20055;-72
2022/09/06 00:46:19;;;;;;;4.47;4.07;;;;;;;25.94;57.88;101412.00;5093611;28;20055;-72
2022/09/06 00:48:51;;;;;;;4.25;3.85;;;;;;;25.94;57.96;101409.28;5094344;28;20044;-72
2022/09/06 00:51:20;;;;;;;5.07;4.10;;;;;;;25.94;57.91;101405.72;5094348;28;20051;-73
2022/09/06 00:53:49;;;;;;;4.22;3.58;;;;;;;25.94;57.93;101413.84;5094239;28;20040;-72
2022/09/06 00:56:17;;;;;;;5.30;4.25;;;;;;;25.93;57.93;101402.16;5094425;28;20047;-73
2022/09/06 00:58:45;;;;;;;4.18;3.78;;;;;;;25.93;57.85;101404.88;5094470;28;20044;-72
2022/09/06 01:01:13;;;;;;;4.25;3.85;;;;;;;25.92;57.85;101408.56;5092225;28;20063;-72
2022/09/06 01:03:41;;;;;;;6.35;3.85;;;;;;;25.93;57.79;101407.59;5093757;28;20048;-72
2022/09/06 01:07:06;;;;;;;4.75;4.18;;;;;;;25.93;57.92;101407.59;5093512;28;20048;-73
2022/09/06 01:10:08;;;;;;;5.25;4.15;;;;;;;25.92;58.00;101405.84;5011844;28;20056;-73
2022/09/06 01:13:03;;;;;;;6.38;3.95;;;;;;;25.92;58.14;101405.84;5011954;28;20050;-73
2022/09/06 01:15:45;;;;;;;4.20;3.80;;;;;;;25.92;58.09;101402.28;5004019;28;20084;-72
2022/09/06 01:18:33;;;;;;;4.90;3.67;;;;;;;25.92;57.94;101405.84;5012513;28;20045;-72
2022/09/06 01:21:19;;;;;;;3.85;3.45;;;;;;;25.92;57.86;101399.59;5011855;28;20069;-73
2022/09/06 01:24:24;;;;;;;4.28;3.80;;;;;;;25.93;57.98;101402.16;5012024;28;20474;-73
2022/09/06 01:27:14;;;;;;;4.07;3.78;;;;;;;25.92;57.88;101405.00;4953360;29;20397;-72
2022/09/06 01:29:55;;;;;;;4.18;3.63;;;;;;;25.93;58.00;101404.88;4953462;29;20408;-73
2022/09/06 01:32:29;;;;;;;4.68;4.10;;;;;;;25.92;58.00;101403.13;4953413;29;20055;-73
2022/09/06 01:35:48;;;;;;;4.22;3.83;;;;;;;25.92;57.94;101405.84;4953484;29;20403;-73
2022/09/06 01:38:16;;;;;;;5.03;4.53;;;;;;;25.91;57.93;101396.03;4932174;29;20062;-73
2022/09/06 01:40:43;;;;;;;4.30;3.90;;;;;;;25.92;57.86;101400.44;5010866;28;20414;-72
2022/09/06 01:43:17;;;;;;;4.53;3.85;;;;;;;25.92;57.92;101407.72;5031241;28;20065;-73
2022/09/06 01:46:18;;;;;;;4.72;4.10;;;;;;;25.92;57.80;101407.72;5031415;28;20552;-72
2022/09/06 01:49:07;;;;;;;4.45;3.78;;;;;;;25.91;57.89;101404.16;5031585;28;20061;-72
2022/09/06 01:51:54;;;;;;;4.70;4.20;;;;;;;25.90;57.65;101402.47;5031281;28;20049;-73
2022/09/06 01:54:37;;;;;;;5.63;4.10;;;;;;;25.91;57.77;101396.03;5014658;28;20060;-73
2022/09/06 01:57:22;;;;;;;4.38;3.97;;;;;;;25.92;57.69;101405.84;5018473;28;20064;-73
2022/09/06 02:00:07;;;;;;;4.10;3.65;;;;;;;25.91;57.75;101398.75;5035606;28;20425;-73
2022/09/06 02:02:49;;;;;;;4.57;3.85;;;;;;;25.91;57.62;101396.03;5070118;28;20059;-73
2022/09/06 02:05:47;;;;;;;4.30;3.80;;;;;;;25.91;57.61;101404.16;5078312;28;20040;-72
2022/09/06 02:08:39;;;;;;;4.43;3.97;;;;;;;25.91;57.62;101397.88;5096725;28;20044;-72
2022/09/06 02:11:08;;;;;;;3.70;3.30;;;;;;;25.90;57.55;101402.47;5096712;28;20387;-73
2022/09/06 02:13:42;;;;;;;4.40;4.00;;;;;;;25.91;57.61;101403.31;5096571;28;20043;-73
2022/09/06 02:16:17;;;;;;;4.10;3.70;;;;;;;25.90;57.55;101410.59;5097472;28;20044;-72
2022/09/06 02:19:11;;;;;;;4.80;3.80;;;;;;;25.90;57.45;101405.19;5097105;28;20055;-73
2022/09/06 02:21:43;;;;;;;4.18;3.50;;;;;;;25.90;57.49;101402.47;5096903;28;20518;-73
2022/09/06 02:24:18;;;;;;;5.75;3.95;;;;;;;25.89;57.60;101396.19;5096764;28;20044;-73
2022/09/06 02:26:46;;;;;;;5.35;4.30;;;;;;;25.90;57.45;101399.75;5096733;28;20040;-73
2022/09/06 02:29:15;;;;;;;4.43;4.03;;;;;;;25.88;57.78;101394.47;5097205;28;20051;-73
2022/09/06 02:31:49;;;;;;;5.75;4.05;;;;;;;25.89;57.54;101392.63;5094359;28;20051;-72
2022/09/06 02:34:18;;;;;;;4.13;3.72;;;;;;;25.89;57.60;101393.47;5096526;28;20051;-73
2022/09/06 02:36:46;;;;;;;4.13;3.60;;;;;;;25.89;57.56;101389.94;5096592;28;20044;-72
2022/09/06 02:39:13;;;;;;;4.32;3.92;;;;;;;25.89;57.62;101387.22;5096143;28;20044;-73
2022/09/06 02:41:44;;;;;;;4.63;3.88;;;;;;;25.88;57.61;101378.19;5096064;28;20503;-73
2022/09/06 02:44:11;;;;;;;4.38;3.88;;;;;;;25.89;57.67;101379.06;5094407;28;20052;-73
2022/09/06 02:46:38;;;;;;;4.10;3.70;;;;;;;25.89;57.85;101387.22;5096184;28;20044;-72
2022/09/06 02:49:06;;;;;;;4.72;4.32;;;;;;;25.89;58.14;101388.06;5095978;28;20047;-73
2022/09/06 02:51:38;;;;;;;7.13;4.45;;;;;;;25.91;58.00;101384.31;5094896;28;20040;-73
2022/09/06 02:54:06;;;;;;;5.38;4.25;;;;;;;25.90;57.97;101388.91;5096426;28;20060;-72
2022/09/06 02:56:35;;;;;;;5.50;4.60;;;;;;;25.90;58.03;101388.91;5095807;28;20040;-73
2022/09/06 02:59:05;;;;;;;4.75;3.90;;;;;;;25.91;58.00;101392.47;5093813;28;20048;-73
2022/09/06 03:01:33;;;;;;;6.45;4.43;;;;;;;25.91;57.97;101387.88;5096502;28;20055;-72
2022/09/06 03:04:01;;;;;;;5.93;3.85;;;;;;;25.91;57.91;101387.88;5096216;28;20468;-72
2022/09/06 03:06:29;;;;;;;4.85;3.80;;;;;;;25.89;58.11;101388.06;5095268;28;20036;-72
2022/09/06 03:08:58;;;;;;;4.75;4.05;;;;;;;25.90;58.14;101386.19;5095477;28;20044;-72
2022/09/06 03:11:26;;;;;;;4.75;4.05;;;;;;;25.88;58.24;101380.91;5095796;28;20480;-73
2022/09/06 03:13:54;;;;;;;4.60;4.20;;;;;;;25.89;58.14;101384.50;5096595;28;20059;-72
2022/09/06 03:16:21;;;;;;;4.65;4.25;;;;;;;25.89;58.06;101384.50;5095925;28;20043;-72
2022/09/06 03:18:48;;;;;;;5.03;4.55;;;;;;;25.88;58.07;101389.03;5095366;28;20487;-72
2022/09/06 03:21:16;;;;;;;5.20;4.30;;;;;;;25.88;57.88;101391.75;5095831;28;20051;-72
2022/09/06 03:23:44;;;;;;;8.20;4.85;;;;;;;25.88;57.97;101396.34;5095805;28;20047;-72
2022/09/06 03:26:12;;;;;;;5.38;4.25;;;;;;;25.87;57.89;101400.91;5095239;28;20369;-72
2022/09/06 03:28:39;;;;;;;4.60;4.10;;;;;;;25.88;57.83;101401.75;5095982;28;20383;-73
2022/09/06 03:31:07;;;;;;;6.20;4.43;;;;;;;25.87;57.99;101400.91;5093502;28;20052;-73
2022/09/06 03:33:34;;;;;;;5.40;4.72;;;;;;;25.86;57.86;101393.81;5095509;28;20048;-72
2022/09/06 03:36:02;;;;;;;4.90;4.47;;;;;;;25.87;57.81;101400.06;5095590;28;20044;-73
2022/09/06 03:38:29;;;;;;;5.70;4.57;;;;;;;25.86;57.99;101396.50;5094871;28;20044;-72
2022/09/06 03:40:57;;;;;;;5.15;4.57;;;;;;;25.87;57.91;101397.34;5094130;28;20043;-72
2022/09/06 03:43:25;;;;;;;6.03;4.65;;;;;;;25.86;57.78;101391.09;5095146;28;20051;-72
2022/09/06 03:45:56;;;;;;;7.68;4.90;;;;;;;25.86;57.54;101390.25;5092694;28;20055;-72
2022/09/06 03:48:26;;;;;;;5.47;4.93;;;;;;;25.83;57.17;101388.69;5095287;28;20040;-72
2022/09/06 03:50:56;;;;;;;5.70;4.90;;;;;;;25.80;57.44;101386.28;5094442;28;20051;-72
2022/09/06 03:53:26;;;;;;;7.10;4.97;;;;;;;25.80;57.67;101385.44;5094710;28;20048;-72
2022/09/06 03:55:56;;;;;;;5.93;5.32;;;;;;;25.78;57.65;101382.91;5094564;28;20411;-73
2022/09/06 03:58:28;;;;;;;6.30;5.20;;;;;;;25.77;57.43;101385.75;5095412;28;20475;-72
2022/09/06 04:01:03;;;;;;;6.37;5.77;;;;;;;25.75;57.38;101385.91;5095241;28;20051;-72
2022/09/06 04:03:31;;;;;;;6.95;5.00;;;;;;;25.74;57.52;101380.66;5093660;28;20059;-72
2022/09/06 04:05:59;;;;;;;6.03;5.40;;;;;;;25.73;57.94;101378.97;5094936;28;20040;-72
2022/09/06 04:08:26;;;;;;;5.72;5.20;;;;;;;25.71;57.40;101381.81;5094556;28;20044;-72
2022/09/06 04:10:55;;;;;;;5.72;5.22;;;;;;;25.70;57.42;101379.28;5093168;28;20054;-72
2022/09/06 04:13:26;;;;;;;6.25;5.55;;;;;;;25.69;57.37;101374.88;5092679;28;20411;-72
2022/09/06 04:15:53;;;;;;;6.93;5.88;;;;;;;25.67;57.54;101379.59;5095066;28;20040;-72
2022/09/06 04:18:20;;;;;;;7.07;5.10;;;;;;;25.65;57.44;101380.59;5094810;28;20044;-72
2022/09/06 04:20:50;;;;;;;5.65;5.03;;;;;;;25.65;57.46;101383.31;5092806;28;20055;-72
2022/09/06 04:23:19;;;;;;;5.85;5.28;;;;;;;25.66;57.80;101395.00;5092415;28;20043;-72
2022/09/06 04:25:51;;;;;;;10.60;6.18;;;;;;;25.66;57.55;101397.72;5094899;28;20040;-72
2022/09/06 04:28:20;;;;;;;6.93;5.82;;;;;;;25.65;57.44;101401.44;5094722;28;20399;-72
2022/09/06 04:30:53;;;;;;;6.35;5.53;;;;;;;25.65;57.57;101398.75;5094093;28;20044;-72
2022/09/06 04:33:24;;;;;;;7.20;5.38;;;;;;;25.64;57.67;101397.88;5094074;28;20407;-72
2022/09/06 04:35:56;;;;;;;5.78;5.13;;;;;;;25.64;57.66;101397.00;5094495;28;20059;-72
2022/09/06 04:38:28;;;;;;;7.03;5.43;;;;;;;25.64;57.43;101397.00;5091894;28;20062;-72
2022/09/06 04:40:56;;;;;;;6.50;5.18;;;;;;;25.64;57.56;101397.00;5094376;28;20044;-72
2022/09/06 04:43:23;;;;;;;6.30;5.70;;;;;;;25.64;57.64;101403.31;5094328;28;20385;-72
2022/09/06 04:45:51;;;;;;;6.65;6.05;;;;;;;25.63;57.68;101400.75;5093755;28;20040;-72
2022/09/06 04:48:18;;;;;;;8.20;7.35;;;;;;;25.57;57.76;101396.81;5093492;28;20055;-73
2022/09/06 04:50:46;;;;;;;8.18;7.38;;;;;;;25.49;57.72;101404.91;5093996;28;20043;-72
2022/09/06 04:53:13;;;;;;;7.63;6.90;;;;;;;25.47;57.71;101406.06;5094195;28;20040;-72
2022/09/06 04:55:40;;;;;;;7.13;5.68;;;;;;;25.48;57.96;101414.06;5094179;28;20040;-72
2022/09/06 04:58:08;;;;;;;6.57;6.05;;;;;;;25.45;57.70;101411.66;5094199;28;20487;-72
2022/09/06 05:00:37;;;;;;;6.72;5.70;;;;;;;25.48;57.73;101424.00;5093541;28;20047;-72
2022/09/06 05:03:04;;;;;;;9.25;7.20;;;;;;;25.47;57.78;101428.59;5093605;28;20046;-71
2022/09/06 05:05:32;;;;;;;7.53;6.15;;;;;;;25.47;57.70;101434.00;5094020;28;20052;-71
2022/09/06 05:07:59;;;;;;;9.40;6.20;;;;;;;25.48;57.82;101434.84;5093535;28;20051;-72
2022/09/06 05:10:26;;;;;;;6.60;5.80;;;;;;;25.47;57.68;101431.31;5092387;28;20538;-72
2022/09/06 05:12:54;;;;;;;6.80;6.10;;;;;;;25.47;57.38;101439.44;5094138;28;20044;-72
2022/09/06 05:15:22;;;;;;;7.75;5.63;;;;;;;25.48;57.15;101434.84;5093908;28;20048;-72
2022/09/06 05:17:49;;;;;;;5.75;5.15;;;;;;;25.47;56.76;101436.72;5092556;28;20056;-72
2022/09/06 05:20:17;;;;;;;9.88;5.65;;;;;;;25.45;56.43;101441.47;5094287;28;20048;-72
2022/09/06 05:22:53;;;;;;;6.63;5.50;;;;;;;25.43;56.06;101443.47;5093398;28;20044;-72
2022/09/06 05:25:20;;;;;;;7.10;4.78;;;;;;;25.40;56.17;101444.66;5091776;28;20059;-72
2022/09/06 05:27:47;;;;;;;5.05;4.55;;;;;;;25.42;56.45;101435.50;5093288;28;20423;-72
2022/09/06 05:30:16;;;;;;;5.68;5.00;;;;;;;25.42;56.54;101443.63;5094453;28;20097;-72
2022/09/06 05:32:44;;;;;;;5.93;5.32;;;;;;;25.40;56.47;101435.66;5097908;28;20399;-72
2022/09/06 05:35:11;;;;;;;5.95;4.70;;;;;;;25.42;56.44;101443.63;5097885;28;20594;-72
2022/09/06 05:37:39;;;;;;;8.07;4.40;;;;;;;25.40;56.07;101446.47;5098869;28;20055;-72
2022/09/06 05:40:06;;;;;;;5.80;4.55;;;;;;;25.40;55.68;101441.06;5098931;28;20044;-72
2022/09/06 05:42:34;;;;;;;5.10;4.40;;;;;;;25.39;55.40;101444.78;5097354;28;20372;-71
2022/09/06 05:45:02;;;;;;;5.13;3.97;;;;;;;25.38;54.46;101434.97;5098000;28;20066;-72
2022/09/06 05:47:33;;;;;;;4.63;3.95;;;;;;;25.37;54.38;101439.53;5098090;28;20044;-71
2022/09/06 05:50:01;;;;;;;7.15;4.22;;;;;;;25.37;54.22;101433.28;5098240;28;20059;-72
2022/09/06 05:52:28;;;;;;;6.25;4.45;;;;;;;25.38;54.44;101437.69;5098478;28;20043;-72
2022/09/06 05:54:55;;;;;;;4.45;3.80;;;;;;;25.38;54.39;101441.22;5095990;28;20407;-72
2022/09/06 05:57:23;;;;;;;5.22;4.07;;;;;;;25.39;54.28;101437.50;5097488;28;20044;-71
2022/09/06 05:59:52;;;;;;;7.45;4.00;;;;;;;25.38;54.13;101445.81;5096961;28;20044;-71
2022/09/06 06:02:20;;;;;;;7.53;3.97;;;;;;;25.38;54.09;101445.81;5097204;28;20044;-72
2022/09/06 06:04:48;;;;;;;5.78;4.28;;;;;;;25.38;53.99;101443.09;5096791;28;20053;-72
2022/09/06 06:07:15;;;;;;;4.78;4.13;;;;;;;25.34;54.02;101447.97;5094693;28;20403;-72
2022/09/06 06:09:43;;;;;;;6.95;4.03;;;;;;;25.35;53.96;101448.81;5096985;28;20052;-72
2022/09/06 06:12:11;;;;;;;7.38;4.30;;;;;;;25.34;54.12;101450.69;5095555;28;20040;-71
2022/09/06 06:14:38;;;;;;;4.65;3.65;;;;;;;25.35;54.40;101448.81;5096160;28;20040;-72
2022/09/06 06:17:06;;;;;;;4.68;3.55;;;;;;;25.37;54.59;101446.81;5097112;28;20051;-72
2022/09/06 06:19:33;;;;;;;7.82;4.63;;;;;;;25.35;54.69;101446.97;5096749;28;20048;-72
2022/09/06 06:22:00;;;;;;;4.90;4.07;;;;;;;25.35;54.79;101446.97;5097217;28;20491;-72
2022/09/06 06:24:28;;;;;;;6.43;4.75;;;;;;;25.35;55.08;101454.25;5097009;28;20055;-71
2022/09/06 06:26:55;;;;;;;7.15;5.05;;;;;;;25.36;55.28;101453.22;5097135;28;20357;-72
2022/09/06 06:29:24;;;;;;;5.75;4.47;;;;;;;25.37;55.55;101450.38;5096319;28;20040;-72
2022/09/06 06:31:51;;;;;;;7.40;5.03;;;;;;;25.37;55.77;101449.53;5096401;28;20475;-72
2022/09/06 06:34:20;;;;;;;7.00;5.32;;;;;;;25.36;55.56;101445.97;5095360;28;20052;-72
2022/09/06 06:36:48;;;;;;;6.20;5.05;;;;;;;25.36;55.44;101447.81;5096238;28;20492;-72
2022/09/06 06:39:15;;;;;;;7.22;5.97;;;;;;;25.34;55.04;101450.69;5096379;28;20380;-72
2022/09/06 06:41:42;;;;;;;10.50;5.43;;;;;;;25.33;54.81;101449.00;5094734;28;20048;-72
2022/09/06 06:44:36;;;;;;;9.02;4.57;;;;;;;25.33;54.84;101454.41;5081450;28;20514;-71
2022/09/06 06:47:03;;;;;;;6.78;4.53;;;;;;;25.35;55.05;101456.94;5095971;28;20048;-71
2022/09/06 06:49:31;;;;;;;7.53;4.45;;;;;;;25.34;55.25;101453.41;5095975;28;20498;-71
2022/09/06 06:51:58;;;;;;;6.03;4.55;;;;;;;25.37;54.98;101454.94;5096657;28;20048;-71
2022/09/06 06:54:26;;;;;;;5.00;3.83;;;;;;;25.36;54.93;101448.69;5095813;28;20055;-72
2022/09/06 06:56:53;;;;;;;9.00;4.40;;;;;;;25.37;54.96;101450.38;5096368;28;20392;-74
2022/09/06 06:59:20;;;;;;;8.63;3.63;;;;;;;25.40;54.97;101451.91;5096106;28;20048;-71
2022/09/06 07:01:49;;;;;;;8.13;4.68;;;;;;;25.39;54.50;101442.94;5096494;28;20480;-72
2022/09/06 07:04:16;;;;;;;7.32;4.60;;;;;;;25.37;54.48;101446.81;5096277;28;20044;-72
2022/09/06 07:06:55;;;;;;;8.75;4.53;;;;;;;25.37;54.71;101446.81;5096074;28;20522;-71
2022/09/06 07:09:42;;;;;;;7.53;4.10;;;;;;;25.39;54.68;101450.22;5095649;28;20399;-71
2022/09/06 07:12:29;;;;;;;10.77;4.30;;;;;;;25.39;54.93;101453.78;5099243;28;20055;-71
2022/09/06 07:14:57;;;;;;;5.35;3.88;;;;;;;25.41;54.71;101453.63;5095452;28;20407;-71
2022/09/06 07:17:24;;;;;;;6.82;4.35;;;;;;;25.41;54.38;101445.50;5095690;28;20067;-72
2022/09/06 07:19:51;;;;;;;5.57;4.38;;;;;;;25.39;54.39;101436.66;5096190;28;20048;-73
2022/09/06 07:22:39;;;;;;;5.47;4.07;;;;;;;25.39;55.09;101434.78;5093449;28;20051;-72
2022/09/06 07:25:08;;;;;;;6.00;3.80;;;;;;;25.42;55.18;101441.78;5095872;28;20066;-72
2022/09/06 07:28:40;;;;;;;5.93;4.47;;;;;;;25.44;55.02;101437.03;5096019;28;20048;-72
2022/09/06 07:31:08;;;;;;;7.32;4.53;;;;;;;25.43;54.40;101438.03;5096356;28;20048;-71
2022/09/06 07:33:55;;;;;;;9.13;5.05;;;;;;;25.41;54.23;101442.78;5128386;27;20043;-71
2022/09/06 07:36:22;;;;;;;6.22;4.32;;;;;;;25.40;54.16;101441.06;5136366;27;20050;-71
2022/09/06 07:38:50;;;;;;;12.57;5.80;;;;;;;25.37;53.90;101438.69;5135728;27;20058;-71
2022/09/06 07:41:18;;;;;;;6.30;4.40;;;;;;;25.35;54.21;101435.28;5135889;27;20043;-72
2022/09/06 07:43:46;;;;;;;6.53;4.45;;;;;;;25.32;54.11;101435.56;5134395;27;20051;-72
2022/09/06 07:46:16;;;;;;;9.00;4.78;;;;;;;25.31;54.17;101431.16;5136104;27;20493;-71
2022/09/06 07:48:45;;;;;;;7.75;4.50;;;;;;;25.30;53.82;101443.03;5136442;27;20047;-72
2022/09/06 07:51:18;;;;;;;8.05;4.00;;;;;;;25.28;54.07;101437.78;5120726;27;20490;-72
2022/09/06 07:53:54;;;;;;;7.47;4.00;;;;;;;25.31;54.63;101434.72;5114781;28;20047;-71
2022/09/06 07:56:41;;;;;;;8.30;4.05;;;;;;;25.37;54.80;101438.69;5115208;28;20047;-71
2022/09/06 07:59:08;;;;;;;5.18;3.78;;;;;;;25.44;53.96;101442.44;5114879;28;20036;-71
2022/09/06 08:01:39;;;;;;;8.63;3.75;;;;;;;25.51;53.82;101446.25;5115020;28;20467;-72
2022/09/06 08:04:07;;;;;;;11.68;3.58;;;;;;;25.57;54.29;101445.63;5115262;28;20054;-71
2022/09/06 08:06:37;;;;;;;5.55;3.70;;;;;;;25.59;53.75;101448.16;5097052;28;20067;-71
2022/09/06 08:09:24;;;;;;;8.52;3.58;;;;;;;25.60;53.66;101450.75;5114797;28;20047;-71
2022/09/06 08:11:52;;;;;;;6.97;4.10;;;;;;;25.61;53.26;101443.44;5114583;28;20052;-72
2022/09/06 08:14:19;;;;;;;7.28;4.40;;;;;;;25.57;53.09;101447.50;5114895;28;20066;-71
2022/09/06 08:16:47;;;;;;;5.97;4.45;;;;;;;25.55;52.86;101435.94;5114404;28;20051;-72
2022/09/06 08:19:14;;;;;;;4.97;3.42;;;;;;;25.51;52.98;101435.41;5114459;28;20039;-72
2022/09/06 08:21:42;;;;;;;5.72;4.60;;;;;;;25.48;53.20;101438.44;5114579;28;20048;-72
2022/09/06 08:24:10;;;;;;;5.75;4.03;;;;;;;25.47;53.49;101439.44;5114191;28;20395;-71
2022/09/06 08:26:43;;;;;;;6.82;3.85;;;;;;;25.45;53.48;101435.19;5114387;28;20399;-72
2022/09/06 08:29:12;;;;;;;8.30;3.90;;;;;;;25.45;53.63;101438.75;5112734;28;20483;-71
2022/09/06 08:31:42;;;;;;;9.60;4.00;;;;;;;25.44;53.63;101434.31;5113421;28;20044;-71
2022/09/06 08:34:11;;;;;;;6.20;3.42;;;;;;;25.42;53.66;101432.78;5114494;28;20067;-71
2022/09/06 08:36:40;;;;;;;5.70;3.83;;;;;;;25.43;53.62;101435.34;5113346;28;20043;-71
2022/09/06 08:39:08;;;;;;;5.35;3.92;;;;;;;25.44;53.91;101423.47;5114047;28;20051;-71
2022/09/06 08:41:59;;;;;;;5.40;3.60;;;;;;;25.46;53.97;101429.59;5113247;28;20364;-71
2022/09/06 08:44:32;;;;;;;7.70;3.70;;;;;;;25.48;53.95;101432.16;5114370;28;20044;-71
2022/09/06 08:47:20;;;;;;;6.43;4.43;;;;;;;25.48;53.99;101430.31;5114133;28;20051;-72
2022/09/06 08:50:12;;;;;;;8.73;4.07;;;;;;;25.49;54.09;101436.59;5113902;28;20043;-71
2022/09/06 08:52:52;;;;;;;6.15;3.85;;;;;;;25.49;54.28;101437.44;5113979;28;20043;-70
2022/09/06 08:56:12;;;;;;;6.82;4.47;;;;;;;25.50;54.47;101432.84;5114090;28;20058;-71
2022/09/06 08:59:08;;;;;;;7.85;4.55;;;;;;;25.51;54.69;101437.25;5112394;28;20043;-71
2022/09/06 09:02:02;;;;;;;6.32;4.53;;;;;;;25.53;54.81;101437.97;5114054;28;20055;-71
2022/09/06 09:04:33;;;;;;;11.88;4.82;;;;;;;25.53;54.80;101436.09;5113835;28;20048;-71
2022/09/06 09:07:15;;;;;;;7.10;4.50;;;;;;;25.53;54.66;101436.09;5113754;28;20055;-72
2022/09/06 09:09:42;;;;;;;7.82;4.68;;;;;;;25.54;54.55;101424.25;5114052;28;20050;-71
2022/09/06 09:12:13;;;;;;;7.88;4.25;;;;;;;25.56;54.64;101424.94;5114160;28;20058;-72
2022/09/06 09:14:44;;;;;;;5.75;3.97;;;;;;;25.56;54.72;101427.66;5112284;28;20051;-71
2022/09/06 09:17:31;;;;;;;6.32;4.53;;;;;;;25.58;54.47;101425.63;5114136;28;20051;-72
2022/09/06 09:19:59;;;;;;;6.93;4.53;;;;;;;25.59;54.46;101421.91;5113605;28;20043;-71
2022/09/06 09:22:26;;;;;;;6.32;4.18;;;;;;;25.60;54.15;101417.31;5112434;28;20056;-71
2022/09/06 09:24:58;;;;;;;7.43;5.03;;;;;;;25.61;54.42;101410.91;5112411;28;20052;-72
2022/09/06 09:27:27;;;;;;;5.57;4.97;;;;;;;25.62;54.59;101412.59;5113847;28;20051;-71
2022/09/06 09:29:54;;;;;;;8.57;4.90;;;;;;;25.63;54.58;101406.16;5113442;28;20054;-72
2022/09/06 09:32:44;;;;;;;6.43;5.18;;;;;;;25.65;54.81;101407.72;5113546;28;20050;-72
2022/09/06 09:35:26;;;;;;;5.07;4.45;;;;;;;25.66;54.69;101403.13;5113901;28;20052;-72
2022/09/06 09:38:07;;;;;;;10.45;5.07;;;;;;;25.68;54.74;101401.09;5113351;28;20055;-71
2022/09/06 09:40:47;;;;;;;10.05;5.07;;;;;;;25.71;54.88;101400.78;5113966;28;20040;-71
2022/09/06 09:43:25;;;;;;;6.85;4.63;;;;;;;25.74;54.84;101388.78;5113498;28;20399;-71
2022/09/06 09:46:14;;;;;;;6.32;4.53;;;;;;;25.76;54.82;101389.47;5113377;28;20051;-72
2022/09/06 09:49:03;;;;;;;7.30;4.72;;;;;;;25.78;54.95;101384.78;5113533;28;20494;-72
2022/09/06 09:51:34;;;;;;;5.55;4.70;;;;;;;25.80;54.98;101382.72;5113527;28;20036;-71
2022/09/06 09:54:04;;;;;;;6.28;4.70;;;;;;;25.82;54.86;101394.28;5113302;28;20055;-71
2022/09/06 09:56:50;;;;;;;5.72;4.70;;;;;;;25.85;55.05;101388.56;5111691;28;20047;-71
2022/09/06 09:59:21;;;;;;;7.55;4.68;;;;;;;25.87;54.88;101378.38;5113632;28;20430;-70
2022/09/06 10:01:52;;;;;;;7.47;4.88;;;;;;;25.93;54.68;101379.56;5113826;28;20047;-72
2022/09/06 10:04:51;;;;;;;5.60;4.28;;;;;;;25.95;54.77;101369.44;5114034;28;20411;-72
2022/09/06 10:07:21;;;;;;;6.78;4.63;;;;;;;25.96;54.66;101369.25;5112757;28;20522;-72
2022/09/06 10:10:03;;;;;;;6.88;4.68;;;;;;;25.96;54.55;101379.25;5113422;28;20040;-71
2022/09/06 10:12:31;;;;;;;5.88;4.10;;;;;;;25.96;54.73;101376.53;5113274;28;20044;-72
2022/09/06 10:14:59;;;;;;;7.03;4.30;;;;;;;25.97;54.73;101376.41;5113195;28;20039;-71
2022/09/06 10:17:46;;;;;;;6.15;4.20;;;;;;;25.95;54.78;101370.28;5115364;28;20044;-71
2022/09/06 10:20:14;;;;;;;5.93;4.47;;;;;;;25.96;54.84;101371.13;5116742;28;20039;-71
2022/09/06 10:22:58;;;;;;;6.05;4.63;;;;;;;25.96;54.99;101363.81;5117055;28;20487;-72
2022/09/06 10:26:07;;;;;;;7.22;4.95;;;;;;;25.96;54.88;101357.56;5117035;28;20475;-72
2022/09/06 10:28:44;;;;;;;6.03;4.63;;;;;;;25.96;54.88;101352.13;5034346;28;20045;-72
2022/09/06 10:31:36;;;;;;;5.63;4.50;;;;;;;25.95;55.17;101337.72;5034374;28;20425;-72
2022/09/06 10:34:41;;;;;;;5.88;4.53;;;;;;;25.96;55.14;101347.53;5034292;28;20072;-72
2022/09/06 10:37:20;;;;;;;6.68;4.75;;;;;;;25.96;55.22;101347.53;5001033;28;20073;-71
2022/09/06 10:39:53;;;;;;;5.43;4.90;;;;;;;25.97;55.03;101353.81;5033883;28;20301;-72
2022/09/06 10:42:31;;;;;;;10.95;5.18;;;;;;;25.97;54.84;101341.13;5034284;28;20053;-71
2022/09/06 10:45:15;;;;;;;7.97;5.80;;;;;;;25.97;54.73;101346.56;5034262;28;20053;-72
2022/09/06 10:48:07;;;;;;;7.40;4.55;;;;;;;25.98;54.63;101345.53;5033899;28;20060;-71
2022/09/06 10:50:51;;;;;;;9.35;5.07;;;;;;;25.98;54.76;101337.41;5033682;28;20053;-72
2022/09/06 10:53:46;;;;;;;5.68;4.20;;;;;;;26.00;54.82;101331.78;5033739;28;20066;-71
2022/09/06 10:56:26;;;;;;;5.90;4.18;;;;;;;25.99;54.86;101328.25;5033308;28;20057;-72
2022/09/06 10:59:01;;;;;;;8.27;4.20;;;;;;;26.00;54.79;101321.78;5056523;28;20052;-73
2022/09/06 11:02:26;;;;;;;5.75;4.85;;;;;;;26.00;54.81;101321.78;5114228;28;20415;-72
2022/09/06 11:05:01;;;;;;;6.80;4.70;;;;;;;26.01;54.93;101306.34;5115898;28;20047;-72
2022/09/06 11:08:20;;;;;;;5.13;4.35;;;;;;;26.02;55.05;101303.50;5115814;28;20047;-72
2022/09/06 11:11:16;;;;;;;6.25;4.70;;;;;;;26.05;55.14;101297.75;5033073;28;20476;-72
2022/09/06 11:13:43;;;;;;;6.28;4.70;;;;;;;26.05;55.03;101299.59;5033315;28;20057;-72
2022/09/06 11:16:27;;;;;;;6.70;4.72;;;;;;;26.06;55.17;101299.44;5033238;28;20073;-71
2022/09/06 11:19:01;;;;;;;4.38;3.97;;;;;;;26.07;55.13;101300.28;5033255;28;20053;-73
2022/09/06 11:21:36;;;;;;;5.82;4.95;;;;;;;26.08;55.14;101296.56;5016301;28;20053;-71
2022/09/06 11:24:31;;;;;;;4.88;4.20;;;;;;;26.08;55.27;101291.13;5032830;28;20539;-72
2022/09/06 11:27:22;;;;;;;5.85;4.65;;;;;;;26.08;55.10;101286.53;5033196;28;20525;-72
2022/09/06 11:29:55;;;;;;;5.57;4.45;;;;;;;26.09;55.04;101287.38;5032062;28;20049;-71
2022/09/06 11:32:57;;;;;;;5.18;4.32;;;;;;;26.10;55.12;101292.66;5016046;28;20054;-72
2022/09/06 11:35:31;;;;;;;5.73;4.00;;;;;;;26.11;55.14;101285.38;5005820;28;20068;-72
2022/09/06 11:37:58;;;;;;;8.23;4.30;;;;;;;26.12;55.29;101278.91;5032666;28;20559;-72
2022/09/06 11:40:35;;;;;;;5.82;4.18;;;;;;;26.12;55.53;101273.50;5015977;28;20058;-71
2022/09/06 11:43:02;;;;;;;6.25;4.20;;;;;;;26.13;56.47;101277.94;5033116;28;20057;-72
2022/09/06 11:45:42;;;;;;;4.88;4.28;;;;;;;26.12;57.35;101282.47;5031623;28;20057;-72
2022/09/06 11:48:33;;;;;;;5.10;4.50;;;;;;;26.12;59.61;101276.22;5089716;28;20064;-71
2022/09/06 11:51:09;;;;;;;5.82;4.72;;;;;;;26.10;59.53;101272.84;5114887;28;20580;-72
2022/09/06 11:53:57;;;;;;;7.07;4.13;;;;;;;26.08;60.55;101270.25;5114795;28;20048;-71
2022/09/06 11:56:44;;;;;;;5.95;4.30;;;;;;;26.07;60.61;101260.44;5114667;28;20054;-71
2022/09/06 11:59:17;;;;;;;6.40;4.43;;;;;;;26.06;61.03;101264.16;5032079;28;20057;-71